CDT,Max TemperatureF,Mean TemperatureF,Min TemperatureF,Max Dew PointF,MeanDew PointF,Min DewpointF,Max Humidity, Mean Humidity, Min Humidity, Max Sea Level PressureIn, Mean Sea Level PressureIn, Min Sea Level PressureIn, Max VisibilityMiles, Mean VisibilityMiles, Min VisibilityMiles, Max Wind SpeedMPH, Mean Wind SpeedMPH, Max Gust SpeedMPH,PrecipitationIn, CloudCover, Events, WindDirDegrees
2012-6-1,70,57,43,45,42,39,93,65,36,29.94,29.88,29.83,10,10,10,20,8,28,0.00,2,,301
2012-6-2,72,63,53,57,52,46,93,73,53,29.83,29.80,29.76,10,10,10,17,7,22,T,4,,251
2012-6-3,82,65,48,61,53,47,96,63,30,29.88,29.84,29.81,10,9,1,15,5,18,0.03,2,Rain,285
2012-6-4,79,69,58,64,59,55,97,71,45,29.91,29.86,29.80,10,9,1,14,6,17,0.21,5,Rain,93
2012-6-5,79,67,54,57,53,49,93,67,40,30.01,29.97,29.93,10,10,10,15,6,21,0.00,3,,86
2012-6-6,77,64,50,55,50,45,89,61,33,30.11,30.06,30.02,10,9,2,12,3,16,0.00,0,,83
2012-6-7,83,67,50,58,52,46,96,64,32,30.14,30.10,30.05,10,8,2,10,2,15,0.00,0,,230
2012-6-8,84,69,54,59,54,51,93,64,34,30.09,30.01,29.90,10,10,10,14,5,17,0.00,0,,213
2012-6-9,87,75,62,57,54,50,67,50,32,29.93,29.87,29.80,10,10,10,18,8,24,0.00,0,,188
2012-6-10,87,79,70,65,61,58,68,56,44,29.89,29.84,29.80,10,10,10,22,12,33,0.00,0,,170
2012-6-11,85,77,68,69,63,51,90,67,43,29.93,29.83,29.79,10,10,6,20,10,28,0.15,1,Rain-Thunderstorm,236
2012-6-12,75,64,52,51,48,43,86,61,35,30.14,30.07,29.95,10,10,10,20,9,25,0.00,0,,320
2012-6-13,76,62,48,52,47,44,93,63,33,30.18,30.12,30.04,10,10,10,16,6,22,0.00,0,,121
2012-6-14,87,69,51,58,52,44,83,58,32,30.06,30.01,29.91,10,10,10,18,9,24,0.00,0,,133
2012-6-15,90,77,63,61,58,55,78,55,32,30.01,29.98,29.90,10,10,10,21,10,25,0.00,0,,151
2012-6-16,89,78,66,73,67,63,93,74,55,29.99,29.93,29.87,10,8,2,29,8,39,0.61,4,Rain-Thunderstorm,224
2012-6-17,84,75,65,68,63,51,100,67,34,29.94,29.87,29.73,10,7,2,14,7,18,0.00,3,,217
2012-6-18,90,83,75,71,68,66,82,66,50,29.76,29.67,29.63,10,10,10,26,14,38,0.00,0,,197
2012-6-19,90,82,74,71,68,64,74,65,55,29.90,29.84,29.78,10,10,10,21,12,29,0.00,1,,187
2012-6-20,91,83,75,70,67,65,74,61,47,29.95,29.88,29.81,10,10,10,23,13,35,0.00,0,,196
2012-6-21,86,75,63,68,61,54,90,63,35,30.01,29.94,29.87,10,10,9,22,9,30,T,4,Rain,291
2012-6-22,86,71,56,58,55,49,93,61,29,30.05,30.01,29.95,10,10,10,14,3,18,0.00,1,,293
2012-6-23,82,70,58,63,59,55,93,68,42,30.03,29.99,29.96,10,10,10,15,3,15,0.00,2,,157
2012-6-24,89,78,66,70,64,59,93,73,53,30.02,29.95,29.90,10,10,2,15,3,23,0.14,4,Rain-Thunderstorm,121
2012-6-25,82,68,54,69,48,41,93,59,24,30.08,30.03,29.93,10,10,10,21,13,28,0.00,1,,74
2012-6-26,83,66,49,59,51,42,86,61,36,30.06,29.99,29.90,10,10,10,14,7,21,0.00,0,,132
2012-6-27,92,76,60,69,59,51,78,58,38,29.91,29.83,29.74,10,10,10,20,9,30,0.00,0,,178
2012-6-28,99,83,66,78,72,65,93,72,51,29.86,29.80,29.76,10,9,7,18,7,23,0.00,0,,277
2012-6-29,92,81,70,75,66,59,97,72,47,29.92,29.84,29.77,10,10,3,28,7,37,0.38,2,Rain-Thunderstorm,84
2012-6-30,88,77,65,75,70,64,93,74,55,29.88,29.83,29.79,10,10,5,16,4,21,T,0,Rain,170